Ashburn Park, Illinois
Current Conditions -  °F | °C
As of 10:53 PM on Monday 20 Oct 2014 (Local Time) from KMDW Reporting Station
Broken Clouds Broken Clouds  
Wind Chill: 13°   Ceiling: 5500
Heat Index: 13°   Visibility: 10mi
Dew Point:   Wind: 12mph
Humidity: 64%   Direction: 350°N
Pressure: 29.99"   Gusts: NA
Location:  41.7473°N, 87.7132°W
Report Text: KMDW 210353Z 35010KT 10SM BKN055 13/06 A2999 RMK AO2 SLP156 T01280061
Loading
Personal Weather Stations






























Interactive Weather Map
Tropical Storm Tracking
New forecast layout! Learn more

10-Day Weather Forecast

Advertisements
Track Severe Weather on mobile